UAKK METAR and TAF | Updated Today

UAKK METAR

Sary-Arka Airport

Observation time: 30 min. ago

UAKK 251900Z 07003MPS CAVOK 12/05 Q1011 NOSIG RMK QFE711/0948

Need help? Read our tutorial on how to read METARs or read the parsed version below.

Sary-Arka Airport (UAKK) METAR

  • Weather conditions on Wed, 25 May 2022 19:00:00 +0000 (30 min. ago):
  • Present conditions: Dry
  • Clouds: Clear skies
  • Visibility: Greater than 10 km
  • Wind: 70 degrees at 3 knots
  • Temperature: 12 celsius
  • Dew point: 5 celsius
  • Pressure: 1011 millibars
  • Remarks: QFE711/0948


Useful to know...

UAKK TAF

Sary-Arka Airport

TAF UAKK 251701Z 2518/2618 VRB02MPS 9999 SCT030 BKN100 TX32/2610Z TN06/2524Z TEMPO 2518/2602 09005MPS TEMPO 2602/2612 24006MPS BKN030CB
Observation time: 2:29 hr. ago
Need help? Read our tutorial on how to read TAFs or read the parsed version below.

Parsed version of TAF for Sary-Arka Airport (UAKK)

  • From 25 May at 18:00 UTC, to day 26 of the month at 18:00 UTC
  • Clouds: Scattered at 914 meters; broken sky at 3048 meters
  • Visibility: Greater than 10 km
  • Wind: Variable at 2
  • Expected to arise temporarily, from 25 May at 18:00 UTC, to day 26 of the month at 02:00 UTC
  • Wind: 90 degrees at 5
  • Expected to arise temporarily, from 26 May at 02:00 UTC, to day 26 of the month at 12:00 UTC
  • Clouds: Broken sky at 914 meters, cumulonimbus
  • Wind: 240 degrees at 6

Airports near UAKK

No airports found within 100nm radius.